MSC Lara — HPUD — position and weather

sailwx.info

Track history (hours):
 
Tides and Currents Weather Stations Pressure Air Temp Water Temp Dewpoint Dewpoint Depression Visibility Wind Speed Wind Dir Waves Ship Positions

MSC Lara

Last reported at 2014-Nov-04 14:28 UTC. Time now 2014-Nov-21 17:47 UTC.
Position S 20°06' E 057°19'.
Warning: this ship's position is 17 days out of date.

Type: Ship (hazmat cat D). MMSI: 355746000.

Date/timePositionNaut miles runAvg speedWind from/ knotsBaromVisibWave heightAir tempDewpointWater temp
2014-Nov-04 14:28S 20°06' E 057°19'1010.2
2014-Nov-04 13:31S 20°08' E 057°30'0 0.0
2014-Nov-04 12:31S 20°08' E 057°30'0 0.0
2014-Nov-04 11:31S 20°08' E 057°30'0 0.0
2014-Nov-04 10:31S 20°08' E 057°30'0 0.0
2014-Nov-04 09:31S 20°08' E 057°30'0 0.0
2014-Nov-04 08:31S 20°08' E 057°30'0 0.0
2014-Nov-04 07:25S 20°08' E 057°30'0 0.0
2014-Nov-04 06:34S 20°08' E 057°30'0 0.0
2014-Nov-04 05:34S 20°08' E 057°30'0 0.0
2014-Nov-04 04:33S 20°08' E 057°30'0 0.0
2014-Nov-04 03:33S 20°08' E 057°30'0 0.0
2014-Nov-04 02:33S 20°08' E 057°30'0 0.0
2014-Nov-04 01:33S 20°08' E 057°30'0 0.0
2014-Nov-04 00:33S 20°08' E 057°30'0 0.0
2014-Nov-03 23:30S 20°08' E 057°30'0 0.0
2014-Nov-03 22:33S 20°08' E 057°30'0 0.0
2014-Nov-03 21:33S 20°08' E 057°30'0 0.0
2014-Nov-03 20:33S 20°08' E 057°30'0 0.0
2014-Nov-03 19:33S 20°08' E 057°30'0 0.0
2014-Nov-03 19:06S 20°08' E 057°30'0 0.0
2014-Nov-03 18:30S 20°08' E 057°30'0 0.0
2014-Nov-03 18:12S 20°08' E 057°30'0 0.0
2014-Nov-03 17:48S 20°08' E 057°30'0 0.0
2014-Nov-03 17:33S 20°08' E 057°30'0 0.0
2014-Nov-03 16:30S 20°08' E 057°30'0 0.0
2014-Nov-03 14:33S 20°08' E 057°30'0 0.0
2014-Nov-03 13:33S 20°08' E 057°30'0 0.0
2014-Nov-03 12:24S 20°08' E 057°30'0 0.0
2014-Nov-03 11:30S 20°08' E 057°30'0 0.0
2014-Nov-03 10:33S 20°08' E 057°30'0 0.0
2014-Nov-03 09:33S 20°08' E 057°30'0 0.3
2014-Nov-03 08:33S 20°08' E 057°29'4 3.7
2014-Nov-03 07:33S 20°07' E 057°26'4 3.9
2014-Nov-03 06:33S 20°06' E 057°22'1 0.6
2014-Nov-03 05:33S 20°06' E 057°21'1 0.5
2014-Nov-03 04:33S 20°06' E 057°21'0 0.4
2014-Nov-03 03:33S 20°05' E 057°21'3 2.9
2014-Nov-03 02:33S 20°07' E 057°18'1 0.5
2014-Nov-03 01:33S 20°06' E 057°19'1 0.7
2014-Nov-03 00:22S 20°06' E 057°19'1 1.1
2014-Nov-02 23:33S 20°05' E 057°20'1 0.9
2014-Nov-02 22:33S 20°05' E 057°21'1 0.7
2014-Nov-02 21:32S 20°04' E 057°21'1 0.7
2014-Nov-02 20:33S 20°04' E 057°22'3 2.5
2014-Nov-02 19:33S 20°05' E 057°20'  
2014-Oct-29 04:07S 20°07' E 057°24'5 9.2
2014-Oct-29 03:34S 20°08' E 057°29'0 0.1
2014-Oct-29 02:33S 20°08' E 057°30'0 0.0
2014-Oct-29 01:33S 20°08' E 057°30'0 0.0
2014-Oct-29 00:33S 20°08' E 057°30'0 0.0
2014-Oct-28 23:33S 20°08' E 057°30'0 0.0
2014-Oct-28 22:33S 20°08' E 057°30'0 0.0
2014-Oct-28 21:33S 20°08' E 057°30'0 0.0
2014-Oct-28 20:33S 20°08' E 057°30'0 0.0
2014-Oct-28 19:33S 20°08' E 057°30'0 0.0
2014-Oct-28 18:33S 20°08' E 057°30'0 0.0
2014-Oct-28 17:33S 20°08' E 057°30'0 0.0
2014-Oct-28 16:33S 20°08' E 057°30'0 0.0
2014-Oct-28 15:33S 20°08' E 057°30'0 0.0
2014-Oct-28 14:33S 20°08' E 057°30'0 0.0
2014-Oct-28 13:33S 20°08' E 057°30'0 0.0
2014-Oct-28 12:33S 20°08' E 057°30'0 0.0
2014-Oct-28 11:33S 20°08' E 057°30'0 0.0
2014-Oct-28 10:33S 20°08' E 057°30'0 0.0
2014-Oct-28 09:33S 20°08' E 057°30'0 0.0
2014-Oct-28 08:33S 20°08' E 057°30'0 0.0
2014-Oct-28 07:33S 20°08' E 057°30'0 0.0
2014-Oct-28 06:33S 20°08' E 057°30'0 0.0
2014-Oct-28 05:33S 20°08' E 057°30'0 0.0
2014-Oct-28 04:32S 20°08' E 057°30'0 0.0
2014-Oct-28 03:29S 20°08' E 057°30'0 0.0
2014-Oct-28 02:32S 20°08' E 057°30'0 0.0
2014-Oct-28 01:32S 20°08' E 057°30'0 0.0
2014-Oct-28 00:32S 20°08' E 057°30'0 0.0
2014-Oct-27 23:32S 20°08' E 057°30'0 0.0
2014-Oct-27 22:32S 20°08' E 057°30'0 0.0
2014-Oct-27 21:32S 20°08' E 057°30'0 0.0
2014-Oct-27 20:32S 20°08' E 057°30'0 0.0
2014-Oct-27 19:32S 20°08' E 057°30'0 0.0
2014-Oct-27 18:32S 20°08' E 057°30'0 0.0
2014-Oct-27 17:32S 20°08' E 057°30'0 0.0
2014-Oct-27 16:32S 20°08' E 057°30'0 0.0
2014-Oct-27 15:32S 20°08' E 057°30'0 0.0
2014-Oct-27 14:32S 20°08' E 057°30'0 0.0
2014-Oct-27 13:32S 20°08' E 057°30'0 0.0
2014-Oct-27 12:32S 20°08' E 057°30'0 0.0
2014-Oct-27 11:32S 20°08' E 057°30'0 0.0
2014-Oct-27 10:32S 20°08' E 057°30'0 0.0
2014-Oct-27 09:32S 20°08' E 057°30'0 0.0
2014-Oct-27 08:32S 20°08' E 057°30'0 0.0
2014-Oct-27 07:32S 20°08' E 057°30'0 0.0
2014-Oct-27 06:32S 20°08' E 057°30'0 0.0
2014-Oct-27 05:32S 20°08' E 057°30'0 0.0
2014-Oct-27 04:32S 20°08' E 057°30'0 0.0
2014-Oct-27 03:32S 20°08' E 057°30'0 0.0
2014-Oct-27 02:32S 20°08' E 057°30'2 2.3
2014-Oct-27 01:33S 20°08' E 057°27'6 5.2
2014-Oct-27 00:29S 20°08' E 057°21'1 1.4
2014-Oct-26 23:30S 20°06' E 057°22'1 1.2
2014-Oct-26 22:29S 20°06' E 057°23'  
Track history (hours):
 
Tides and Currents Weather Stations Pressure Air Temp Water Temp Dewpoint Dewpoint Depression Visibility Wind Speed Wind Dir Waves Ship Positions

MSC Lara

Last reported at 2014-Nov-04 14:28 UTC. Time now 2014-Nov-21 17:47 UTC.
Position S 20°06' E 057°19'.
Warning: this ship's position is 17 days out of date.

Type: Ship (hazmat cat D). MMSI: 355746000.

Date/timePositionNaut miles runAvg speedWind from/ knotsBaromVisibWave heightAir tempDewpointWater temp
2014-Nov-04 14:28S 20°06' E 057°19'1010.2
2014-Nov-04 13:31S 20°08' E 057°30'0 0.0
2014-Nov-04 12:31S 20°08' E 057°30'0 0.0
2014-Nov-04 11:31S 20°08' E 057°30'0 0.0
2014-Nov-04 10:31S 20°08' E 057°30'0 0.0
2014-Nov-04 09:31S 20°08' E 057°30'0 0.0
2014-Nov-04 08:31S 20°08' E 057°30'0 0.0
2014-Nov-04 07:25S 20°08' E 057°30'0 0.0
2014-Nov-04 06:34S 20°08' E 057°30'0 0.0
2014-Nov-04 05:34S 20°08' E 057°30'0 0.0
2014-Nov-04 04:33S 20°08' E 057°30'0 0.0
2014-Nov-04 03:33S 20°08' E 057°30'0 0.0
2014-Nov-04 02:33S 20°08' E 057°30'0 0.0
2014-Nov-04 01:33S 20°08' E 057°30'0 0.0
2014-Nov-04 00:33S 20°08' E 057°30'0 0.0
2014-Nov-03 23:30S 20°08' E 057°30'0 0.0
2014-Nov-03 22:33S 20°08' E 057°30'0 0.0
2014-Nov-03 21:33S 20°08' E 057°30'0 0.0
2014-Nov-03 20:33S 20°08' E 057°30'0 0.0
2014-Nov-03 19:33S 20°08' E 057°30'0 0.0
2014-Nov-03 19:06S 20°08' E 057°30'0 0.0
2014-Nov-03 18:30S 20°08' E 057°30'0 0.0
2014-Nov-03 18:12S 20°08' E 057°30'0 0.0
2014-Nov-03 17:48S 20°08' E 057°30'0 0.0
2014-Nov-03 17:33S 20°08' E 057°30'0 0.0
2014-Nov-03 16:30S 20°08' E 057°30'0 0.0
2014-Nov-03 14:33S 20°08' E 057°30'0 0.0
2014-Nov-03 13:33S 20°08' E 057°30'0 0.0
2014-Nov-03 12:24S 20°08' E 057°30'0 0.0
2014-Nov-03 11:30S 20°08' E 057°30'0 0.0
2014-Nov-03 10:33S 20°08' E 057°30'0 0.0
2014-Nov-03 09:33S 20°08' E 057°30'0 0.3
2014-Nov-03 08:33S 20°08' E 057°29'4 3.7
2014-Nov-03 07:33S 20°07' E 057°26'4 3.9
2014-Nov-03 06:33S 20°06' E 057°22'1 0.6
2014-Nov-03 05:33S 20°06' E 057°21'1 0.5
2014-Nov-03 04:33S 20°06' E 057°21'0 0.4
2014-Nov-03 03:33S 20°05' E 057°21'3 2.9
2014-Nov-03 02:33S 20°07' E 057°18'1 0.5
2014-Nov-03 01:33S 20°06' E 057°19'1 0.7
2014-Nov-03 00:22S 20°06' E 057°19'1 1.1
2014-Nov-02 23:33S 20°05' E 057°20'1 0.9
2014-Nov-02 22:33S 20°05' E 057°21'1 0.7
2014-Nov-02 21:32S 20°04' E 057°21'1 0.7
2014-Nov-02 20:33S 20°04' E 057°22'3 2.5
2014-Nov-02 19:33S 20°05' E 057°20'  
2014-Oct-29 04:07S 20°07' E 057°24'5 9.2
2014-Oct-29 03:34S 20°08' E 057°29'0 0.1
2014-Oct-29 02:33S 20°08' E 057°30'0 0.0
2014-Oct-29 01:33S 20°08' E 057°30'0 0.0
2014-Oct-29 00:33S 20°08' E 057°30'0 0.0
2014-Oct-28 23:33S 20°08' E 057°30'0 0.0
2014-Oct-28 22:33S 20°08' E 057°30'0 0.0
2014-Oct-28 21:33S 20°08' E 057°30'0 0.0
2014-Oct-28 20:33S 20°08' E 057°30'0 0.0
2014-Oct-28 19:33S 20°08' E 057°30'0 0.0
2014-Oct-28 18:33S 20°08' E 057°30'0 0.0
2014-Oct-28 17:33S 20°08' E 057°30'0 0.0
2014-Oct-28 16:33S 20°08' E 057°30'0 0.0
2014-Oct-28 15:33S 20°08' E 057°30'0 0.0
2014-Oct-28 14:33S 20°08' E 057°30'0 0.0
2014-Oct-28 13:33S 20°08' E 057°30'0 0.0
2014-Oct-28 12:33S 20°08' E 057°30'0 0.0
2014-Oct-28 11:33S 20°08' E 057°30'0 0.0
2014-Oct-28 10:33S 20°08' E 057°30'0 0.0
2014-Oct-28 09:33S 20°08' E 057°30'0 0.0
2014-Oct-28 08:33S 20°08' E 057°30'0 0.0
2014-Oct-28 07:33S 20°08' E 057°30'0 0.0
2014-Oct-28 06:33S 20°08' E 057°30'0 0.0
2014-Oct-28 05:33S 20°08' E 057°30'0 0.0
2014-Oct-28 04:32S 20°08' E 057°30'0 0.0
2014-Oct-28 03:29S 20°08' E 057°30'0 0.0
2014-Oct-28 02:32S 20°08' E 057°30'0 0.0
2014-Oct-28 01:32S 20°08' E 057°30'0 0.0
2014-Oct-28 00:32S 20°08' E 057°30'0 0.0
2014-Oct-27 23:32S 20°08' E 057°30'0 0.0
2014-Oct-27 22:32S 20°08' E 057°30'0 0.0
2014-Oct-27 21:32S 20°08' E 057°30'0 0.0
2014-Oct-27 20:32S 20°08' E 057°30'0 0.0
2014-Oct-27 19:32S 20°08' E 057°30'0 0.0
2014-Oct-27 18:32S 20°08' E 057°30'0 0.0
2014-Oct-27 17:32S 20°08' E 057°30'0 0.0
2014-Oct-27 16:32S 20°08' E 057°30'0 0.0
2014-Oct-27 15:32S 20°08' E 057°30'0 0.0
2014-Oct-27 14:32S 20°08' E 057°30'0 0.0
2014-Oct-27 13:32S 20°08' E 057°30'0 0.0
2014-Oct-27 12:32S 20°08' E 057°30'0 0.0
2014-Oct-27 11:32S 20°08' E 057°30'0 0.0
2014-Oct-27 10:32S 20°08' E 057°30'0 0.0
2014-Oct-27 09:32S 20°08' E 057°30'0 0.0
2014-Oct-27 08:32S 20°08' E 057°30'0 0.0
2014-Oct-27 07:32S 20°08' E 057°30'0 0.0
2014-Oct-27 06:32S 20°08' E 057°30'0 0.0
2014-Oct-27 05:32S 20°08' E 057°30'0 0.0
2014-Oct-27 04:32S 20°08' E 057°30'0 0.0
2014-Oct-27 03:32S 20°08' E 057°30'0 0.0
2014-Oct-27 02:32S 20°08' E 057°30'2 2.3
2014-Oct-27 01:33S 20°08' E 057°27'6 5.2
2014-Oct-27 00:29S 20°08' E 057°21'1 1.4
2014-Oct-26 23:30S 20°06' E 057°22'1 1.2
2014-Oct-26 22:29S 20°06' E 057°23'  

Dump ship's entire track history